createdAt,value
2018-04-19T00:02:19.419Z,51.90
2018-04-19T00:05:42.261Z,51.70
2018-04-19T00:09:06.909Z,52.00
2018-04-19T00:12:29.905Z,52.70
2018-04-19T00:15:52.766Z,53.10
2018-04-19T00:19:15.607Z,54.00
2018-04-19T00:22:38.475Z,54.60
2018-04-19T00:26:01.395Z,55.50
2018-04-19T00:29:25.019Z,57.50
2018-04-19T00:32:47.945Z,57.50
2018-04-19T00:36:10.786Z,57.50
2018-04-19T00:39:33.637Z,57.10
2018-04-19T00:42:56.464Z,57.60
2018-04-19T00:46:19.333Z,56.90
2018-04-19T00:49:42.190Z,58.20
2018-04-19T00:53:09.910Z,58.80
2018-04-19T00:56:32.757Z,58.70
2018-04-19T00:59:55.591Z,59.60
2018-04-19T01:03:18.442Z,60.50
2018-04-19T01:06:41.288Z,61.90
2018-04-19T01:10:04.136Z,61.40
2018-04-19T01:13:27.034Z,62.10
2018-04-19T01:16:50.645Z,62.90
2018-04-19T01:20:13.499Z,62.90
2018-04-19T01:23:36.359Z,62.40
2018-04-19T01:26:59.242Z,61.90
2018-04-19T01:30:22.166Z,64.60
2018-04-19T01:33:45.026Z,64.00
2018-04-19T01:37:07.854Z,64.80
2018-04-19T01:40:30.730Z,66.00
2018-04-19T01:43:53.596Z,66.80
2018-04-19T01:47:17.214Z,65.60
2018-04-19T01:50:40.057Z,65.50
2018-04-19T01:54:02.911Z,67.10
2018-04-19T01:57:25.870Z,66.50
2018-04-19T02:00:49.486Z,67.80
2018-04-19T02:04:12.329Z,67.70
2018-04-19T02:07:35.193Z,67.20
2018-04-19T02:10:58.023Z,68.40
2018-04-19T02:14:20.864Z,68.30
2018-04-19T02:17:43.773Z,68.50
2018-04-19T02:21:06.648Z,68.10
2018-04-19T02:24:29.500Z,68.10
2018-04-19T02:27:52.335Z,68.80
2018-04-19T02:31:15.192Z,68.80
2018-04-19T02:34:38.036Z,69.40
2018-04-19T02:38:00.859Z,70.20
2018-04-19T02:41:23.736Z,70.20
2018-04-19T02:44:46.572Z,70.70
2018-04-19T02:48:09.448Z,70.80
2018-04-19T02:51:32.348Z,71.90
2018-04-19T02:54:55.185Z,71.70
2018-04-19T02:58:18.038Z,71.60
2018-04-19T03:01:40.896Z,72.10
2018-04-19T03:05:03.749Z,72.60
2018-04-19T03:08:26.596Z,72.20
2018-04-19T03:11:49.526Z,72.40
2018-04-19T03:15:14.720Z,72.40
2018-04-19T03:18:38.331Z,72.10
2018-04-19T03:22:01.180Z,72.00
2018-04-19T03:25:24.008Z,72.80
2018-04-19T03:28:46.885Z,72.10
2018-04-19T03:32:09.775Z,72.70
2018-04-19T03:35:32.662Z,73.30
2018-04-19T03:38:55.588Z,74.30
2018-04-19T03:42:18.491Z,73.60
2018-04-19T03:45:41.337Z,73.50
2018-04-19T03:49:04.187Z,73.80
2018-04-19T03:52:27.027Z,74.20
2018-04-19T03:55:50.146Z,74.60
2018-04-19T03:59:13.021Z,74.80
2018-04-19T04:02:35.883Z,74.60
2018-04-19T04:05:58.760Z,74.60
2018-04-19T04:09:21.647Z,74.20
2018-04-19T04:12:44.545Z,74.00
2018-04-19T04:16:07.399Z,74.50
2018-04-19T04:19:42.192Z,74.50
2018-04-19T04:23:44.702Z,74.60
2018-04-19T04:27:07.567Z,75.20
2018-04-19T04:30:30.433Z,76.20
2018-04-19T04:33:53.359Z,76.00
2018-04-19T04:37:16.250Z,76.60
2018-04-19T04:40:39.118Z,76.80
2018-04-19T04:44:02.222Z,76.80
2018-04-19T04:47:25.183Z,76.80
2018-04-19T04:50:48.123Z,76.90
2018-04-19T04:54:11.026Z,77.00
2018-04-19T04:57:35.464Z,76.00
2018-04-19T05:01:03.518Z,75.90
2018-04-19T05:04:26.408Z,76.00
2018-04-19T05:07:49.537Z,77.60
2018-04-19T05:11:12.441Z,76.70
2018-04-19T05:14:35.300Z,76.80
2018-04-19T05:17:58.175Z,74.70
2018-04-19T05:21:21.147Z,74.70
2018-04-19T05:24:45.654Z,74.70
2018-04-19T05:28:08.653Z,74.60
2018-04-19T05:31:31.713Z,73.60
2018-04-19T05:34:54.563Z,73.60
2018-04-19T05:38:18.480Z,73.50
2018-04-19T05:41:41.349Z,73.10
2018-04-19T05:45:04.181Z,72.40
2018-04-19T05:48:27.764Z,70.60
2018-04-19T05:51:51.021Z,70.80
2018-04-19T05:55:14.039Z,71.70
2018-04-19T05:58:36.911Z,71.10
2018-04-19T06:02:00.712Z,69.90
2018-04-19T06:05:24.308Z,68.10
2018-04-19T06:08:47.147Z,68.10
2018-04-19T06:12:10.749Z,68.20
2018-04-19T06:15:33.671Z,68.20
2018-04-19T06:18:56.506Z,68.10
2018-04-19T06:22:19.329Z,68.20
2018-04-19T06:25:42.957Z,67.70
2018-04-19T06:29:05.789Z,67.60
2018-04-19T06:32:28.623Z,67.30
2018-04-19T06:35:51.468Z,67.40
2018-04-19T06:39:15.059Z,65.00
2018-04-19T06:42:37.891Z,65.00
2018-04-19T06:46:01.511Z,64.80
2018-04-19T06:49:24.342Z,64.80
2018-04-19T06:52:47.163Z,64.20
2018-04-19T06:56:10.017Z,62.90
2018-04-19T06:59:32.846Z,62.70
2018-04-19T07:02:56.467Z,61.60
2018-04-19T07:06:19.423Z,61.50
2018-04-19T07:09:43.047Z,60.60
2018-04-19T07:13:05.868Z,60.50
2018-04-19T07:16:28.711Z,60.90
2018-04-19T07:19:51.541Z,60.30
2018-04-19T07:23:14.392Z,59.70
2018-04-19T07:26:37.961Z,58.30
2018-04-19T07:30:01.656Z,58.80
2018-04-19T07:33:24.484Z,58.70
2018-04-19T07:36:47.594Z,58.40
2018-04-19T07:40:11.522Z,57.50
2018-04-19T07:43:35.142Z,56.40
2018-04-19T07:47:00.903Z,56.40
2018-04-19T07:50:23.736Z,55.30
2018-04-19T07:53:48.054Z,55.60
2018-04-19T07:57:10.989Z,55.30
2018-04-19T08:00:33.944Z,54.60
2018-04-19T08:03:57.351Z,54.10
2018-04-19T08:07:20.247Z,53.80
2018-04-19T08:10:43.103Z,54.10
2018-04-19T08:14:05.957Z,53.50
2018-04-19T08:17:28.810Z,52.60
2018-04-19T08:20:51.773Z,52.00
2018-04-19T08:24:14.603Z,51.40
2018-04-19T08:27:38.199Z,51.30
2018-04-19T08:31:01.073Z,51.30
2018-04-19T08:34:23.917Z,50.50
2018-04-19T08:37:46.757Z,50.40
2018-04-19T08:41:09.601Z,49.70
2018-04-19T08:44:32.499Z,48.70
2018-04-19T08:47:55.323Z,48.80
2018-04-19T08:51:18.917Z,48.20
2018-04-19T08:54:41.761Z,48.30
2018-04-19T08:58:04.603Z,48.10
2018-04-19T09:01:27.431Z,48.00
2018-04-19T09:04:51.029Z,46.90
2018-04-19T09:08:13.853Z,46.80
2018-04-19T09:11:37.449Z,45.80
2018-04-19T09:15:00.281Z,45.80
2018-04-19T09:18:23.911Z,46.50
2018-04-19T09:21:46.761Z,45.90
2018-04-19T09:25:10.511Z,45.20
2018-04-19T09:28:34.111Z,43.70
2018-04-19T09:31:56.951Z,43.70
2018-04-19T09:35:19.773Z,43.90
2018-04-19T09:38:43.417Z,44.70
2018-04-19T09:42:07.009Z,42.90
2018-04-19T09:45:29.840Z,42.90
2018-04-19T09:48:53.438Z,42.80
2018-04-19T09:52:16.268Z,42.60
2018-04-19T09:55:39.872Z,43.00
2018-04-19T09:59:11.474Z,43.00
2018-04-19T10:02:35.257Z,42.40
2018-04-19T10:06:00.115Z,43.00
2018-04-19T10:09:22.932Z,42.00
2018-04-19T10:12:46.556Z,40.80
2018-04-19T10:16:12.811Z,40.70
2018-04-19T10:19:38.703Z,40.60
2018-04-19T10:23:01.531Z,40.70
2018-04-19T10:26:25.137Z,39.60
2018-04-19T10:29:47.976Z,39.40
2018-04-19T10:33:10.812Z,39.20
2018-04-19T10:36:34.411Z,38.40
2018-04-19T10:39:57.334Z,38.40
2018-04-19T10:43:20.207Z,38.20
2018-04-19T10:46:43.049Z,37.80
2018-04-19T10:50:05.882Z,37.90
2018-04-19T10:53:28.720Z,38.10
2018-04-19T10:56:51.542Z,36.90
2018-04-19T11:00:15.161Z,35.90
2018-04-19T11:03:37.995Z,35.90
2018-04-19T11:07:00.830Z,36.30
2018-04-19T11:10:23.690Z,35.50
2018-04-19T11:13:46.566Z,35.80
2018-04-19T11:17:09.402Z,35.00
2018-04-19T11:20:32.249Z,35.20
2018-04-19T11:23:55.106Z,34.80
2018-04-19T11:27:17.944Z,34.50
2018-04-19T11:30:40.802Z,34.20
2018-04-19T11:34:03.640Z,34.00
2018-04-19T11:37:26.472Z,34.20
2018-04-19T11:40:49.326Z,33.10
2018-04-19T11:44:12.184Z,32.70
2018-04-19T11:47:35.031Z,33.10
2018-04-19T11:50:57.860Z,33.10
2018-04-19T11:54:20.681Z,32.60
2018-04-19T11:57:44.314Z,33.10
2018-04-19T12:01:07.340Z,33.00
2018-04-19T12:04:30.195Z,33.00
2018-04-19T12:07:53.027Z,33.00
2018-04-19T12:11:16.653Z,32.10
2018-04-19T12:14:39.495Z,32.00
2018-04-19T12:18:02.345Z,32.30
2018-04-19T12:21:25.213Z,31.90
2018-04-19T12:24:48.877Z,31.10
2018-04-19T12:28:11.775Z,31.10
2018-04-19T12:31:34.605Z,30.80
2018-04-19T12:34:57.473Z,31.20
2018-04-19T12:38:21.168Z,29.10
2018-04-19T12:41:44.125Z,29.00
2018-04-19T12:45:07.737Z,30.20
2018-04-19T12:48:30.744Z,30.20
2018-04-19T12:51:53.598Z,30.90
2018-04-19T12:55:16.413Z,29.60
2018-04-19T12:58:39.252Z,29.30
2018-04-19T13:02:02.091Z,29.00
2018-04-19T13:05:24.916Z,28.80
2018-04-19T13:08:49.263Z,29.00
2018-04-19T13:12:12.103Z,29.00
2018-04-19T13:15:35.712Z,28.60
2018-04-19T13:19:00.079Z,28.70
2018-04-19T13:22:22.939Z,28.70
2018-04-19T13:25:46.091Z,28.50
2018-04-19T13:29:08.885Z,27.70
2018-04-19T13:32:31.730Z,27.50
2018-04-19T13:35:54.717Z,27.90
2018-04-19T13:39:17.553Z,27.30
2018-04-19T13:42:41.140Z,26.50
2018-04-19T13:46:03.979Z,26.50
2018-04-19T13:49:27.580Z,26.10
2018-04-19T13:52:50.417Z,26.00
2018-04-19T13:56:13.251Z,26.90
2018-04-19T13:59:36.851Z,26.80
2018-04-19T14:02:59.694Z,26.80
2018-04-19T14:06:22.548Z,27.20
2018-04-19T14:09:46.158Z,28.00
2018-04-19T14:13:09.782Z,27.90
2018-04-19T14:16:32.626Z,27.90
2018-04-19T14:19:55.453Z,27.90
2018-04-19T14:23:18.297Z,27.80
2018-04-19T14:26:41.935Z,27.20
2018-04-19T14:30:05.569Z,27.30
2018-04-19T14:33:29.064Z,27.30
2018-04-19T14:36:51.903Z,27.60
2018-04-19T14:40:14.757Z,27.00
2018-04-19T14:43:37.641Z,26.90
2018-04-19T14:47:00.439Z,26.80
2018-04-19T14:50:23.270Z,26.60
2018-04-19T14:53:46.135Z,26.10
2018-04-19T14:57:09.056Z,25.80
2018-04-19T15:00:31.917Z,25.30
2018-04-19T15:03:54.768Z,25.10
2018-04-19T15:07:17.609Z,25.50
2018-04-19T15:10:40.602Z,25.00
2018-04-19T15:14:03.417Z,24.60
2018-04-19T15:17:26.249Z,24.10
2018-04-19T15:20:49.905Z,24.70
2018-04-19T15:24:13.489Z,25.50
2018-04-19T15:27:36.313Z,25.40
2018-04-19T15:31:00.673Z,23.60
2018-04-19T15:34:23.530Z,23.60
2018-04-19T15:37:46.370Z,23.00
2018-04-19T15:41:09.221Z,23.20
2018-04-19T15:44:32.045Z,23.30
2018-04-19T15:47:54.926Z,23.00
2018-04-19T15:51:17.710Z,23.00
2018-04-19T15:54:41.339Z,22.50
2018-04-19T15:58:04.443Z,22.50
2018-04-19T16:01:27.315Z,22.60
2018-04-19T16:04:50.142Z,22.60
2018-04-19T16:08:12.970Z,22.60
2018-04-19T16:11:36.596Z,22.30
2018-04-19T16:14:59.587Z,22.30
2018-04-19T16:18:22.483Z,24.20
2018-04-19T16:21:45.344Z,24.60
2018-04-19T16:25:08.209Z,24.60
2018-04-19T16:28:31.048Z,25.20
2018-04-19T16:31:53.905Z,25.40
2018-04-19T16:35:16.742Z,25.10
2018-04-19T16:38:39.609Z,25.30
2018-04-19T16:42:02.810Z,25.50
2018-04-19T16:45:25.690Z,25.50
2018-04-19T16:48:48.591Z,25.30
2018-04-19T16:52:13.659Z,25.20
2018-04-19T16:55:36.792Z,25.20
2018-04-19T16:58:59.693Z,25.40
2018-04-19T17:02:23.302Z,26.00
2018-04-19T17:05:46.213Z,26.00
2018-04-19T17:09:09.076Z,26.20
2018-04-19T17:12:31.940Z,26.60
2018-04-19T17:15:54.850Z,26.70
2018-04-19T17:19:17.778Z,27.00
2018-04-19T17:22:40.737Z,27.10
2018-04-19T17:26:03.823Z,27.50
2018-04-19T17:29:26.688Z,27.20
2018-04-19T17:32:49.611Z,27.50
2018-04-19T17:36:13.259Z,28.30
2018-04-19T17:39:36.234Z,28.30
2018-04-19T17:43:00.137Z,29.00
2018-04-19T17:46:23.755Z,30.20
2018-04-19T17:49:46.632Z,30.20
2018-04-19T17:53:10.348Z,31.90
2018-04-19T17:56:33.964Z,32.90
2018-04-19T17:59:56.940Z,32.80
2018-04-19T18:03:19.830Z,32.80
2018-04-19T18:06:43.493Z,33.50
2018-04-19T18:10:07.108Z,33.40
2018-04-19T18:13:30.011Z,33.30
2018-04-19T18:16:52.872Z,33.10
2018-04-19T18:20:15.740Z,32.10
2018-04-19T18:23:38.673Z,31.70
2018-04-19T18:27:03.320Z,32.30
2018-04-19T18:30:26.205Z,32.30
2018-04-19T18:33:49.088Z,35.20
2018-04-19T18:37:12.021Z,37.10
2018-04-19T18:40:34.947Z,37.30
2018-04-19T18:43:58.601Z,39.60
2018-04-19T18:47:22.215Z,40.50
2018-04-19T18:50:45.075Z,40.40
2018-04-19T18:54:07.971Z,40.70
2018-04-19T18:57:30.840Z,41.30
2018-04-19T19:00:53.700Z,39.20
2018-04-19T19:04:16.597Z,41.80
2018-04-19T19:07:39.513Z,42.90
2018-04-19T19:11:02.381Z,43.00
2018-04-19T19:14:25.225Z,43.40
2018-04-19T19:17:59.863Z,42.80
2018-04-19T19:21:22.838Z,42.30
2018-04-19T19:24:45.695Z,42.20
2018-04-19T19:28:08.745Z,44.30
2018-04-19T19:31:31.695Z,45.30
2018-04-19T19:34:54.593Z,45.30
2018-04-19T19:38:17.520Z,46.30
2018-04-19T19:41:40.440Z,47.30
2018-04-19T19:45:03.285Z,47.50
2018-04-19T19:48:26.110Z,47.80
2018-04-19T19:51:48.992Z,49.60
2018-04-19T19:55:11.890Z,49.50
2018-04-19T19:58:34.758Z,50.30
2018-04-19T20:01:57.588Z,50.70
2018-04-19T20:05:20.444Z,51.70
2018-04-19T20:08:43.362Z,51.90
2018-04-19T20:12:08.106Z,51.80
2018-04-19T20:15:32.196Z,53.40
2018-04-19T20:18:55.125Z,53.40
2018-04-19T20:22:18.027Z,53.10
2018-04-19T20:25:40.886Z,53.60
2018-04-19T20:29:03.742Z,54.50
2018-04-19T20:32:27.005Z,55.10
2018-04-19T20:35:49.857Z,55.00
2018-04-19T20:39:12.706Z,55.60
2018-04-19T20:42:35.649Z,55.70
2018-04-19T20:45:58.524Z,56.50
2018-04-19T20:49:21.387Z,57.30
2018-04-19T20:52:44.229Z,57.30
2018-04-19T20:56:07.103Z,58.50
2018-04-19T20:59:30.265Z,58.60
2018-04-19T21:02:53.176Z,58.20
2018-04-19T21:06:16.798Z,60.00
2018-04-19T21:09:39.654Z,59.90
2018-04-19T21:13:02.550Z,59.60
2018-04-19T21:16:25.410Z,59.30
2018-04-19T21:19:48.300Z,59.10
2018-04-19T21:23:11.192Z,58.50
2018-04-19T21:26:34.042Z,58.50
2018-04-19T21:29:56.976Z,58.40
2018-04-19T21:33:19.906Z,57.90
2018-04-19T21:36:43.593Z,58.50
2018-04-19T21:40:06.466Z,58.50
2018-04-19T21:43:29.526Z,58.30
2018-04-19T21:46:52.429Z,58.30
2018-04-19T21:50:15.268Z,59.20
2018-04-19T21:53:38.146Z,59.80
2018-04-19T21:57:01.051Z,60.20
2018-04-19T22:00:23.981Z,59.90
2018-04-19T22:03:46.947Z,59.70
2018-04-19T22:07:09.866Z,60.10
2018-04-19T22:10:32.741Z,60.90
2018-04-19T22:13:55.725Z,60.30
2018-04-19T22:17:18.601Z,61.50
2018-04-19T22:20:42.297Z,61.80
2018-04-19T22:24:05.223Z,61.70
2018-04-19T22:27:28.242Z,61.90
2018-04-19T22:30:51.850Z,63.20
2018-04-19T22:34:14.690Z,63.10
2018-04-19T22:37:37.566Z,63.60
2018-04-19T22:41:01.557Z,64.90
2018-04-19T22:44:24.446Z,65.00
2018-04-19T22:47:47.389Z,63.90
2018-04-19T22:51:10.217Z,63.70
2018-04-19T22:54:33.177Z,64.70
2018-04-19T22:57:56.246Z,65.20
2018-04-19T23:01:19.368Z,66.10
2018-04-19T23:04:42.219Z,66.30
2018-04-19T23:08:05.316Z,67.50
2018-04-19T23:11:29.646Z,67.10
2018-04-19T23:14:52.523Z,67.10
2018-04-19T23:18:15.496Z,67.20
2018-04-19T23:21:38.339Z,68.00
2018-04-19T23:25:01.268Z,69.00
2018-04-19T23:28:24.836Z,69.00
2018-04-19T23:31:47.720Z,69.00
2018-04-19T23:35:11.363Z,69.10
2018-04-19T23:38:34.428Z,69.00
2018-04-19T23:41:57.319Z,68.40
2018-04-19T23:45:20.192Z,69.00
2018-04-19T23:48:43.107Z,69.00
2018-04-19T23:52:05.940Z,70.30
2018-04-19T23:55:28.775Z,70.00
2018-04-19T23:58:51.653Z,70.00
